createdAt,value
2018-08-23T00:02:02.206Z,99.90
2018-08-23T00:05:56.964Z,99.90
2018-08-23T00:09:52.515Z,99.90
2018-08-23T00:13:46.643Z,99.90
2018-08-23T00:17:47.226Z,99.90
2018-08-23T00:21:42.902Z,99.90
2018-08-23T00:25:37.477Z,99.90
2018-08-23T00:29:33.146Z,99.90
2018-08-23T00:33:27.301Z,99.90
2018-08-23T00:37:21.245Z,99.90
2018-08-23T00:41:15.196Z,99.90
2018-08-23T00:45:16.546Z,99.90
2018-08-23T00:49:10.550Z,99.90
2018-08-23T00:53:04.586Z,99.90
2018-08-23T00:56:59.488Z,99.90
2018-08-23T01:00:57.714Z,99.90
2018-08-23T01:04:51.712Z,99.90
2018-08-23T01:08:45.648Z,99.90
2018-08-23T01:12:51.034Z,99.90
2018-08-23T01:16:56.024Z,99.90
2018-08-23T01:20:51.760Z,99.90
2018-08-23T01:24:47.955Z,99.90
2018-08-23T01:28:41.976Z,99.90
2018-08-23T01:32:35.951Z,99.90
2018-08-23T01:36:33.063Z,99.90
2018-08-23T01:40:27.034Z,99.90
2018-08-23T01:44:21.815Z,99.90
2018-08-23T01:48:15.766Z,99.90
2018-08-23T01:52:09.745Z,99.90
2018-08-23T01:56:03.748Z,99.90
2018-08-23T01:59:57.728Z,99.90
2018-08-23T02:03:51.718Z,99.90
2018-08-23T02:07:45.650Z,99.90
2018-08-23T02:11:39.697Z,99.90
2018-08-23T02:15:41.867Z,99.90
2018-08-23T02:19:42.841Z,99.90
2018-08-23T02:23:47.468Z,99.90
2018-08-23T02:28:04.517Z,99.90
2018-08-23T02:31:58.421Z,99.90
2018-08-23T02:36:22.424Z,99.90
2018-08-23T02:40:16.334Z,99.90
2018-08-23T02:44:10.331Z,99.90
2018-08-23T02:48:04.922Z,99.90
2018-08-23T02:51:58.868Z,99.90
2018-08-23T02:55:53.659Z,99.90
2018-08-23T02:59:47.633Z,99.90
2018-08-23T03:03:52.675Z,99.90
2018-08-23T03:07:46.727Z,99.90
2018-08-23T03:11:40.696Z,99.90
2018-08-23T03:15:34.698Z,99.90
2018-08-23T03:19:28.674Z,99.90
2018-08-23T03:23:22.646Z,99.90
2018-08-23T03:27:16.619Z,99.90
2018-08-23T03:31:10.551Z,99.90
2018-08-23T03:35:04.482Z,99.90
2018-08-23T03:38:58.486Z,99.90
2018-08-23T03:42:52.496Z,99.90
2018-08-23T03:46:56.009Z,99.90
2018-08-23T03:50:52.508Z,99.90
2018-08-23T03:55:01.506Z,99.90
2018-08-23T03:58:55.507Z,99.90
2018-08-23T04:02:49.488Z,99.90
2018-08-23T04:06:43.520Z,99.90
2018-08-23T04:10:37.478Z,99.90
2018-08-23T04:14:31.415Z,99.90
2018-08-23T04:18:25.401Z,99.90
2018-08-23T04:22:19.407Z,99.90
2018-08-23T04:26:13.435Z,99.90
2018-08-23T04:30:07.977Z,99.90
2018-08-23T04:34:05.238Z,99.90
2018-08-23T04:37:59.154Z,99.90
2018-08-23T04:41:59.385Z,99.90
2018-08-23T04:45:53.346Z,99.90
2018-08-23T04:49:47.440Z,99.90
2018-08-23T04:53:41.501Z,99.90
2018-08-23T04:57:35.499Z,99.90
2018-08-23T05:01:29.465Z,99.90
2018-08-23T05:05:23.440Z,99.90
2018-08-23T05:09:17.427Z,99.90
2018-08-23T05:13:11.438Z,99.90
2018-08-23T05:17:05.379Z,99.90
2018-08-23T05:20:59.389Z,99.90
2018-08-23T05:24:54.813Z,99.90
2018-08-23T05:29:01.031Z,99.90
2018-08-23T05:32:59.325Z,99.90
2018-08-23T05:36:53.282Z,99.90
2018-08-23T05:40:53.439Z,99.90
2018-08-23T05:44:47.481Z,99.90
2018-08-23T05:48:41.458Z,99.90
2018-08-23T05:52:35.475Z,99.90
2018-08-23T05:56:29.444Z,99.90
2018-08-23T06:00:23.419Z,99.90
2018-08-23T06:04:18.344Z,99.90
2018-08-23T06:08:12.614Z,99.90
2018-08-23T06:12:06.781Z,99.90
2018-08-23T06:16:00.754Z,99.90
2018-08-23T06:19:54.899Z,99.90
2018-08-23T06:24:00.103Z,99.90
2018-08-23T06:27:54.916Z,99.90
2018-08-23T06:31:55.303Z,99.90
2018-08-23T06:35:49.400Z,99.90
2018-08-23T06:39:43.727Z,99.90
2018-08-23T06:43:37.722Z,99.90
2018-08-23T06:47:31.690Z,99.90
2018-08-23T06:51:25.662Z,99.90
2018-08-23T06:55:27.790Z,99.90
2018-08-23T06:59:21.843Z,99.90
2018-08-23T07:03:15.854Z,99.90
2018-08-23T07:07:14.165Z,99.90
2018-08-23T07:11:14.450Z,99.90
2018-08-23T07:15:08.626Z,99.90
2018-08-23T07:19:04.089Z,99.90
2018-08-23T07:22:58.135Z,99.90
2018-08-23T07:26:52.103Z,99.90
2018-08-23T07:30:46.203Z,99.90
2018-08-23T07:34:40.264Z,99.90
2018-08-23T07:38:34.252Z,99.90
2018-08-23T07:42:29.379Z,99.90
2018-08-23T07:46:23.547Z,99.90
2018-08-23T07:50:17.509Z,99.90
2018-08-23T07:54:15.692Z,99.90
2018-08-23T07:58:10.479Z,99.90
2018-08-23T08:02:04.731Z,99.90
2018-08-23T08:05:58.764Z,99.90
2018-08-23T08:09:52.763Z,99.90
2018-08-23T08:13:46.816Z,99.90
2018-08-23T08:17:41.475Z,99.90
2018-08-23T08:21:35.665Z,99.90
2018-08-23T08:25:29.555Z,99.90
2018-08-23T08:29:28.892Z,99.90
2018-08-23T08:33:22.931Z,99.90
2018-08-23T08:37:16.934Z,99.90
2018-08-23T08:41:10.905Z,99.90
2018-08-23T08:45:10.788Z,99.90
2018-08-23T08:49:04.761Z,99.90
2018-08-23T08:52:58.672Z,99.90
2018-08-23T08:56:53.229Z,99.90
2018-08-23T09:00:50.943Z,99.50
2018-08-23T09:04:44.874Z,99.10
2018-08-23T09:08:39.425Z,98.80
2018-08-23T09:12:33.835Z,98.60
2018-08-23T09:16:27.790Z,98.20
2018-08-23T09:20:21.865Z,97.50
2018-08-23T09:24:26.422Z,97.40
2018-08-23T09:28:20.488Z,97.20
2018-08-23T09:32:21.462Z,96.70
2018-08-23T09:36:15.533Z,96.90
2018-08-23T09:40:10.244Z,96.80
2018-08-23T09:44:04.195Z,96.50
2018-08-23T09:47:58.244Z,96.50
2018-08-23T09:51:52.188Z,95.30
2018-08-23T09:55:47.654Z,94.80
2018-08-23T09:59:43.241Z,93.60
2018-08-23T10:03:42.599Z,93.40
2018-08-23T10:07:42.016Z,93.40
2018-08-23T10:12:43.865Z,93.60
2018-08-23T10:16:43.396Z,94.10
2018-08-23T10:20:44.740Z,93.10
2018-08-23T10:24:38.912Z,92.30
2018-08-23T10:28:38.348Z,92.00
2018-08-23T10:32:32.430Z,91.10
2018-08-23T10:36:26.533Z,90.20
2018-08-23T10:40:21.262Z,89.20
2018-08-23T10:44:15.419Z,88.40
2018-08-23T10:48:14.907Z,87.40
2018-08-23T10:52:08.974Z,86.60
2018-08-23T10:56:03.150Z,87.00
2018-08-23T10:59:58.152Z,85.50
2018-08-23T11:03:52.231Z,85.40
2018-08-23T11:07:51.645Z,84.20
2018-08-23T11:11:45.694Z,81.60
2018-08-23T11:15:39.722Z,81.80
2018-08-23T11:19:39.230Z,82.00
2018-08-23T11:23:33.332Z,83.80
2018-08-23T11:27:27.450Z,84.00
2018-08-23T11:31:26.892Z,83.70
2018-08-23T11:35:21.426Z,83.40
2018-08-23T11:39:16.301Z,83.80
2018-08-23T11:43:10.417Z,82.20
2018-08-23T11:47:04.353Z,82.90
2018-08-23T11:50:58.481Z,83.40
2018-08-23T11:54:52.499Z,84.20
2018-08-23T11:58:46.566Z,83.60
2018-08-23T12:02:43.115Z,83.00
2018-08-23T12:06:37.320Z,82.90
2018-08-23T12:10:31.671Z,83.80
2018-08-23T12:14:25.999Z,84.70
2018-08-23T12:18:20.100Z,85.10
2018-08-23T12:22:14.091Z,84.90
2018-08-23T12:26:08.097Z,83.20
2018-08-23T12:30:04.737Z,83.30
2018-08-23T12:33:59.446Z,84.30
2018-08-23T12:38:00.788Z,84.70
2018-08-23T12:42:00.289Z,84.60
2018-08-23T12:46:00.075Z,86.10
2018-08-23T12:49:58.345Z,84.20
2018-08-23T12:53:52.380Z,83.00
2018-08-23T12:57:46.321Z,83.60
2018-08-23T13:01:40.395Z,84.30
2018-08-23T13:05:34.484Z,83.60
2018-08-23T13:09:28.552Z,84.10
2018-08-23T13:13:22.567Z,84.70
2018-08-23T13:17:16.674Z,84.90
2018-08-23T13:21:10.659Z,84.40
2018-08-23T13:25:04.726Z,82.70
2018-08-23T13:28:58.683Z,82.60
2018-08-23T13:32:52.795Z,83.80
2018-08-23T13:36:47.015Z,83.80
2018-08-23T13:40:41.465Z,84.00
2018-08-23T13:44:35.544Z,84.80
2018-08-23T13:48:29.729Z,85.10
2018-08-23T13:52:23.597Z,84.10
2018-08-23T13:56:17.580Z,83.30
2018-08-23T14:00:17.799Z,83.10
2018-08-23T14:04:11.833Z,82.60
2018-08-23T14:08:05.904Z,82.40
2018-08-23T14:11:59.903Z,81.80
2018-08-23T14:15:59.349Z,81.70
2018-08-23T14:19:53.528Z,81.50
2018-08-23T14:23:47.661Z,81.90
2018-08-23T14:27:42.032Z,82.50
2018-08-23T14:31:36.079Z,82.60
2018-08-23T14:35:30.048Z,83.90
2018-08-23T14:39:24.046Z,81.90
2018-08-23T14:43:18.181Z,79.40
2018-08-23T14:47:17.673Z,78.00
2018-08-23T14:51:13.792Z,79.80
2018-08-23T14:55:07.845Z,80.60
2018-08-23T14:59:01.777Z,80.00
2018-08-23T15:02:55.814Z,79.90
2018-08-23T15:06:49.874Z,78.40
2018-08-23T15:10:43.868Z,79.00
2018-08-23T15:14:38.154Z,80.00
2018-08-23T15:18:32.059Z,80.10
2018-08-23T15:22:26.188Z,80.50
2018-08-23T15:26:20.413Z,80.70
2018-08-23T15:30:14.333Z,80.70
2018-08-23T15:34:08.566Z,80.70
2018-08-23T15:38:02.551Z,81.00
2018-08-23T15:41:56.651Z,81.20
2018-08-23T15:45:50.741Z,80.90
2018-08-23T15:49:44.811Z,80.50
2018-08-23T15:53:38.762Z,80.90
2018-08-23T15:57:32.782Z,81.80
2018-08-23T16:01:26.799Z,82.60
2018-08-23T16:05:20.855Z,83.00
2018-08-23T16:09:14.856Z,82.20
2018-08-23T16:13:08.899Z,81.10
2018-08-23T16:17:08.206Z,83.10
2018-08-23T16:21:02.234Z,82.60
2018-08-23T16:24:56.355Z,82.70
2018-08-23T16:28:51.197Z,83.00
2018-08-23T16:32:45.175Z,83.10
2018-08-23T16:36:39.203Z,83.20
2018-08-23T16:40:33.354Z,83.30
2018-08-23T16:44:27.335Z,83.70
2018-08-23T16:48:21.343Z,84.80
2018-08-23T16:52:15.339Z,85.40
2018-08-23T16:56:09.290Z,85.90
2018-08-23T17:00:03.319Z,86.00
2018-08-23T17:03:58.010Z,85.00
2018-08-23T17:07:52.030Z,85.40
2018-08-23T17:11:46.043Z,86.10
2018-08-23T17:15:45.349Z,86.40
2018-08-23T17:19:39.397Z,87.00
2018-08-23T17:23:34.094Z,87.90
2018-08-23T17:27:28.163Z,89.10
2018-08-23T17:31:22.214Z,89.50
2018-08-23T17:35:16.214Z,90.10
2018-08-23T17:39:10.591Z,90.30
2018-08-23T17:43:04.570Z,90.60
2018-08-23T17:46:58.613Z,90.70
2018-08-23T17:50:52.606Z,91.00
2018-08-23T17:54:46.623Z,91.20
2018-08-23T17:58:41.002Z,91.50
2018-08-23T18:02:36.316Z,91.70
2018-08-23T18:06:30.383Z,91.90
2018-08-23T18:10:24.369Z,92.00
2018-08-23T18:14:18.716Z,92.40
2018-08-23T18:18:12.792Z,92.70
2018-08-23T18:22:06.904Z,92.90
2018-08-23T18:26:01.167Z,93.10
2018-08-23T18:29:55.236Z,93.20
2018-08-23T18:33:49.339Z,93.30
2018-08-23T18:37:43.391Z,93.40
2018-08-23T18:41:37.785Z,93.70
2018-08-23T18:45:31.797Z,94.00
2018-08-23T18:49:25.811Z,94.20
2018-08-23T18:53:20.069Z,94.40
2018-08-23T18:57:14.011Z,94.80
2018-08-23T19:01:08.075Z,95.00
2018-08-23T19:05:02.009Z,95.30
2018-08-23T19:08:56.051Z,95.60
2018-08-23T19:12:50.139Z,95.90
2018-08-23T19:16:49.485Z,96.00
2018-08-23T19:20:43.449Z,96.10
2018-08-23T19:24:37.465Z,96.40
2018-08-23T19:28:31.587Z,96.40
2018-08-23T19:32:25.546Z,96.40
2018-08-23T19:36:19.554Z,96.60
2018-08-23T19:40:13.528Z,96.90
2018-08-23T19:44:07.675Z,97.30
2018-08-23T19:48:01.760Z,97.30
2018-08-23T19:51:55.962Z,97.50
2018-08-23T19:55:49.931Z,97.70
2018-08-23T19:59:43.927Z,97.80
2018-08-23T20:03:37.945Z,97.80
2018-08-23T20:07:31.877Z,97.90
2018-08-23T20:11:25.921Z,97.90
2018-08-23T20:15:25.882Z,98.20
2018-08-23T20:19:20.343Z,98.20
2018-08-23T20:23:14.274Z,98.40
2018-08-23T20:27:08.222Z,98.50
2018-08-23T20:31:02.276Z,98.50
2018-08-23T20:34:56.311Z,98.60
2018-08-23T20:38:50.379Z,98.60
2018-08-23T20:42:44.422Z,99.10
2018-08-23T20:46:38.947Z,98.80
2018-08-23T20:50:33.468Z,98.60
2018-08-23T20:54:27.430Z,98.90
2018-08-23T20:58:21.513Z,98.90
2018-08-23T21:02:15.580Z,98.90
2018-08-23T21:06:09.592Z,99.00
2018-08-23T21:10:03.793Z,99.10
2018-08-23T21:13:57.655Z,99.20
2018-08-23T21:17:51.626Z,99.30
2018-08-23T21:21:46.635Z,99.50
2018-08-23T21:25:40.749Z,99.60
2018-08-23T21:29:34.819Z,99.80
2018-08-23T21:33:28.879Z,99.90
2018-08-23T21:37:22.804Z,99.90
2018-08-23T21:41:16.775Z,99.80
2018-08-23T21:45:10.883Z,99.90
2018-08-23T21:49:04.871Z,99.90
2018-08-23T21:52:58.860Z,99.90
2018-08-23T21:56:52.812Z,99.90
2018-08-23T22:00:52.119Z,99.90
2018-08-23T22:04:51.673Z,99.90
2018-08-23T22:08:45.700Z,99.90
2018-08-23T22:12:39.648Z,99.90
2018-08-23T22:16:33.769Z,99.90
2018-08-23T22:20:27.702Z,99.90
2018-08-23T22:24:21.674Z,99.90
2018-08-23T22:28:15.650Z,99.90
2018-08-23T22:32:09.837Z,99.90
2018-08-23T22:36:03.894Z,99.90
2018-08-23T22:39:57.876Z,99.90
2018-08-23T22:43:51.848Z,99.90
2018-08-23T22:47:45.893Z,99.90
2018-08-23T22:51:39.906Z,99.90
2018-08-23T22:55:33.855Z,99.90
2018-08-23T22:59:27.827Z,99.90
2018-08-23T23:03:27.235Z,99.90
2018-08-23T23:07:21.251Z,99.90
2018-08-23T23:11:15.254Z,99.90
2018-08-23T23:15:14.687Z,99.90
2018-08-23T23:19:08.646Z,99.90
2018-08-23T23:23:02.887Z,99.90
2018-08-23T23:26:57.265Z,99.90
2018-08-23T23:30:51.272Z,99.90
2018-08-23T23:34:45.246Z,99.90
2018-08-23T23:38:39.218Z,99.90
2018-08-23T23:42:33.244Z,99.90
2018-08-23T23:46:27.202Z,99.90
2018-08-23T23:50:21.252Z,99.90
